sensor_id;sensor_type;location;lat;lon;timestamp;temperature;humidity
32753;DHT22;19121;52.428;10.816;2023-05-07T00:01:41;20.30;44.50
32753;DHT22;19121;52.428;10.816;2023-05-07T00:04:07;20.30;44.50
32753;DHT22;19121;52.428;10.816;2023-05-07T00:06:32;20.30;44.50
32753;DHT22;19121;52.428;10.816;2023-05-07T00:08:58;20.30;44.50
32753;DHT22;19121;52.428;10.816;2023-05-07T00:11:23;20.30;44.50
32753;DHT22;19121;52.428;10.816;2023-05-07T00:13:49;20.30;44.40
32753;DHT22;19121;52.428;10.816;2023-05-07T00:16:14;20.30;45.00
32753;DHT22;19121;52.428;10.816;2023-05-07T00:18:39;20.30;44.50
32753;DHT22;19121;52.428;10.816;2023-05-07T00:21:05;20.20;44.40
32753;DHT22;19121;52.428;10.816;2023-05-07T00:23:30;20.30;44.40
32753;DHT22;19121;52.428;10.816;2023-05-07T00:25:56;20.20;44.40
32753;DHT22;19121;52.428;10.816;2023-05-07T00:28:21;20.20;44.40
32753;DHT22;19121;52.428;10.816;2023-05-07T00:30:47;20.20;44.40
32753;DHT22;19121;52.428;10.816;2023-05-07T00:33:12;20.20;44.40
32753;DHT22;19121;52.428;10.816;2023-05-07T00:35:37;20.20;45.00
32753;DHT22;19121;52.428;10.816;2023-05-07T00:38:03;20.20;44.40
32753;DHT22;19121;52.428;10.816;2023-05-07T00:40:28;20.20;44.40
32753;DHT22;19121;52.428;10.816;2023-05-07T00:42:54;20.20;44.30
32753;DHT22;19121;52.428;10.816;2023-05-07T00:45:24;20.20;44.30
32753;DHT22;19121;52.428;10.816;2023-05-07T00:47:51;20.20;44.30
32753;DHT22;19121;52.428;10.816;2023-05-07T00:50:16;20.20;44.40
32753;DHT22;19121;52.428;10.816;2023-05-07T00:52:42;20.20;44.30
32753;DHT22;19121;52.428;10.816;2023-05-07T00:55:07;20.20;44.30
32753;DHT22;19121;52.428;10.816;2023-05-07T00:57:36;20.20;44.30
32753;DHT22;19121;52.428;10.816;2023-05-07T01:00:06;20.20;44.30
32753;DHT22;19121;52.428;10.816;2023-05-07T01:02:32;20.10;44.20
32753;DHT22;19121;52.428;10.816;2023-05-07T01:04:58;20.10;44.20
32753;DHT22;19121;52.428;10.816;2023-05-07T01:07:25;20.10;44.20
32753;DHT22;19121;52.428;10.816;2023-05-07T01:09:50;20.10;44.30
32753;DHT22;19121;52.428;10.816;2023-05-07T01:12:16;20.10;44.20
32753;DHT22;19121;52.428;10.816;2023-05-07T01:14:42;20.10;44.30
32753;DHT22;19121;52.428;10.816;2023-05-07T01:17:07;20.10;44.20
32753;DHT22;19121;52.428;10.816;2023-05-07T01:19:33;20.10;44.30
32753;DHT22;19121;52.428;10.816;2023-05-07T01:22:01;20.10;44.20
32753;DHT22;19121;52.428;10.816;2023-05-07T01:24:28;20.10;44.20
32753;DHT22;19121;52.428;10.816;2023-05-07T01:26:54;20.10;44.20
32753;DHT22;19121;52.428;10.816;2023-05-07T01:29:19;20.10;44.20
32753;DHT22;19121;52.428;10.816;2023-05-07T01:31:45;20.10;44.20
32753;DHT22;19121;52.428;10.816;2023-05-07T01:34:11;20.10;44.30
32753;DHT22;19121;52.428;10.816;2023-05-07T01:36:38;20.10;44.20
32753;DHT22;19121;52.428;10.816;2023-05-07T01:39:04;20.00;44.20
32753;DHT22;19121;52.428;10.816;2023-05-07T01:41:30;20.00;44.20
32753;DHT22;19121;52.428;10.816;2023-05-07T01:43:56;20.00;44.20
32753;DHT22;19121;52.428;10.816;2023-05-07T01:46:23;20.00;44.20
32753;DHT22;19121;52.428;10.816;2023-05-07T01:48:49;20.00;44.20
32753;DHT22;19121;52.428;10.816;2023-05-07T01:51:15;20.00;44.20
32753;DHT22;19121;52.428;10.816;2023-05-07T01:53:41;20.00;44.20
32753;DHT22;19121;52.428;10.816;2023-05-07T01:56:07;20.00;44.20
32753;DHT22;19121;52.428;10.816;2023-05-07T01:58:32;20.00;44.10
32753;DHT22;19121;52.428;10.816;2023-05-07T02:00:58;20.00;44.20
32753;DHT22;19121;52.428;10.816;2023-05-07T02:03:23;20.00;44.80
32753;DHT22;19121;52.428;10.816;2023-05-07T02:05:48;20.00;44.20
32753;DHT22;19121;52.428;10.816;2023-05-07T02:08:14;20.00;44.10
32753;DHT22;19121;52.428;10.816;2023-05-07T02:10:39;20.00;44.20
32753;DHT22;19121;52.428;10.816;2023-05-07T02:13:05;20.00;44.10
32753;DHT22;19121;52.428;10.816;2023-05-07T02:15:30;19.90;44.10
32753;DHT22;19121;52.428;10.816;2023-05-07T02:17:59;20.00;44.10
32753;DHT22;19121;52.428;10.816;2023-05-07T02:20:25;19.90;44.10
32753;DHT22;19121;52.428;10.816;2023-05-07T02:22:51;19.90;44.10
32753;DHT22;19121;52.428;10.816;2023-05-07T02:25:16;19.90;44.10
32753;DHT22;19121;52.428;10.816;2023-05-07T02:27:41;19.90;44.10
32753;DHT22;19121;52.428;10.816;2023-05-07T02:30:07;19.90;44.10
32753;DHT22;19121;52.428;10.816;2023-05-07T02:32:32;19.90;44.10
32753;DHT22;19121;52.428;10.816;2023-05-07T02:34:58;19.90;44.10
32753;DHT22;19121;52.428;10.816;2023-05-07T02:37:23;19.90;44.10
32753;DHT22;19121;52.428;10.816;2023-05-07T02:39:49;19.90;44.10
32753;DHT22;19121;52.428;10.816;2023-05-07T02:42:14;19.90;44.10
32753;DHT22;19121;52.428;10.816;2023-05-07T02:44:39;19.90;44.10
32753;DHT22;19121;52.428;10.816;2023-05-07T02:47:05;19.90;44.10
32753;DHT22;19121;52.428;10.816;2023-05-07T02:49:33;19.90;44.10
32753;DHT22;19121;52.428;10.816;2023-05-07T02:51:59;19.90;44.10
32753;DHT22;19121;52.428;10.816;2023-05-07T02:54:24;19.90;44.10
32753;DHT22;19121;52.428;10.816;2023-05-07T02:56:50;19.90;44.10
32753;DHT22;19121;52.428;10.816;2023-05-07T02:59:15;19.90;44.00
32753;DHT22;19121;52.428;10.816;2023-05-07T03:01:41;19.90;44.00
32753;DHT22;19121;52.428;10.816;2023-05-07T03:04:09;19.90;44.00
32753;DHT22;19121;52.428;10.816;2023-05-07T03:06:35;19.90;44.00
32753;DHT22;19121;52.428;10.816;2023-05-07T03:09:00;19.90;44.00
32753;DHT22;19121;52.428;10.816;2023-05-07T03:11:25;19.80;44.00
32753;DHT22;19121;52.428;10.816;2023-05-07T03:13:51;19.90;44.00
32753;DHT22;19121;52.428;10.816;2023-05-07T03:16:16;19.80;44.00
32753;DHT22;19121;52.428;10.816;2023-05-07T03:18:42;19.80;44.00
32753;DHT22;19121;52.428;10.816;2023-05-07T03:21:07;19.80;44.00
32753;DHT22;19121;52.428;10.816;2023-05-07T03:23:32;19.80;44.00
32753;DHT22;19121;52.428;10.816;2023-05-07T03:25:58;19.80;44.00
32753;DHT22;19121;52.428;10.816;2023-05-07T03:28:23;19.80;44.00
32753;DHT22;19121;52.428;10.816;2023-05-07T03:30:48;19.80;44.00
32753;DHT22;19121;52.428;10.816;2023-05-07T03:33:14;19.80;44.00
32753;DHT22;19121;52.428;10.816;2023-05-07T03:35:39;19.80;44.00
32753;DHT22;19121;52.428;10.816;2023-05-07T03:38:05;19.80;44.00
32753;DHT22;19121;52.428;10.816;2023-05-07T03:40:30;19.70;44.00
32753;DHT22;19121;52.428;10.816;2023-05-07T03:42:56;19.80;44.00
32753;DHT22;19121;52.428;10.816;2023-05-07T03:45:21;19.70;44.00
32753;DHT22;19121;52.428;10.816;2023-05-07T03:47:47;19.70;44.00
32753;DHT22;19121;52.428;10.816;2023-05-07T03:50:12;19.70;44.00
32753;DHT22;19121;52.428;10.816;2023-05-07T03:52:37;19.70;43.90
32753;DHT22;19121;52.428;10.816;2023-05-07T03:55:03;19.70;44.00
32753;DHT22;19121;52.428;10.816;2023-05-07T03:57:28;19.70;44.00
32753;DHT22;19121;52.428;10.816;2023-05-07T03:59:54;19.70;44.00
32753;DHT22;19121;52.428;10.816;2023-05-07T04:02:19;19.70;44.00
32753;DHT22;19121;52.428;10.816;2023-05-07T04:04:45;19.70;44.00
32753;DHT22;19121;52.428;10.816;2023-05-07T04:07:10;19.70;44.00
32753;DHT22;19121;52.428;10.816;2023-05-07T04:09:35;19.70;44.00
32753;DHT22;19121;52.428;10.816;2023-05-07T04:12:01;19.70;43.90
32753;DHT22;19121;52.428;10.816;2023-05-07T04:14:26;19.70;43.90
32753;DHT22;19121;52.428;10.816;2023-05-07T04:16:52;19.70;43.90
32753;DHT22;19121;52.428;10.816;2023-05-07T04:19:17;19.70;43.90
32753;DHT22;19121;52.428;10.816;2023-05-07T04:21:42;19.70;43.90
32753;DHT22;19121;52.428;10.816;2023-05-07T04:24:08;19.70;43.90
32753;DHT22;19121;52.428;10.816;2023-05-07T04:26:33;19.60;43.80
32753;DHT22;19121;52.428;10.816;2023-05-07T04:28:59;19.70;43.90
32753;DHT22;19121;52.428;10.816;2023-05-07T04:31:25;19.60;43.80
32753;DHT22;19121;52.428;10.816;2023-05-07T04:33:51;19.60;43.80
32753;DHT22;19121;52.428;10.816;2023-05-07T04:36:16;19.70;43.90
32753;DHT22;19121;52.428;10.816;2023-05-07T04:38:42;19.60;43.80
32753;DHT22;19121;52.428;10.816;2023-05-07T04:41:08;19.60;43.80
32753;DHT22;19121;52.428;10.816;2023-05-07T04:43:33;19.60;43.80
32753;DHT22;19121;52.428;10.816;2023-05-07T04:45:59;19.60;43.80
32753;DHT22;19121;52.428;10.816;2023-05-07T04:48:24;19.60;43.80
32753;DHT22;19121;52.428;10.816;2023-05-07T04:50:50;19.60;43.80
32753;DHT22;19121;52.428;10.816;2023-05-07T04:53:16;19.60;43.80
32753;DHT22;19121;52.428;10.816;2023-05-07T04:55:41;19.60;43.80
32753;DHT22;19121;52.428;10.816;2023-05-07T04:58:07;19.60;43.80
32753;DHT22;19121;52.428;10.816;2023-05-07T05:00:33;19.60;43.80
32753;DHT22;19121;52.428;10.816;2023-05-07T05:02:58;19.60;43.80
32753;DHT22;19121;52.428;10.816;2023-05-07T05:05:24;19.60;43.80
32753;DHT22;19121;52.428;10.816;2023-05-07T05:07:49;19.60;43.80
32753;DHT22;19121;52.428;10.816;2023-05-07T05:10:17;19.60;43.80
32753;DHT22;19121;52.428;10.816;2023-05-07T05:12:42;19.60;43.80
32753;DHT22;19121;52.428;10.816;2023-05-07T05:15:08;19.60;43.80
32753;DHT22;19121;52.428;10.816;2023-05-07T05:17:33;19.60;43.80
32753;DHT22;19121;52.428;10.816;2023-05-07T05:20:00;19.60;43.80
32753;DHT22;19121;52.428;10.816;2023-05-07T05:22:25;19.60;43.80
32753;DHT22;19121;52.428;10.816;2023-05-07T05:24:51;19.60;43.80
32753;DHT22;19121;52.428;10.816;2023-05-07T05:27:17;19.60;43.70
32753;DHT22;19121;52.428;10.816;2023-05-07T05:29:42;19.60;44.40
32753;DHT22;19121;52.428;10.816;2023-05-07T05:32:08;19.50;43.70
32753;DHT22;19121;52.428;10.816;2023-05-07T05:34:33;19.50;43.70
32753;DHT22;19121;52.428;10.816;2023-05-07T05:36:59;19.50;43.70
32753;DHT22;19121;52.428;10.816;2023-05-07T05:39:24;19.50;43.70
32753;DHT22;19121;52.428;10.816;2023-05-07T05:41:50;19.50;43.70
32753;DHT22;19121;52.428;10.816;2023-05-07T05:44:15;19.50;43.70
32753;DHT22;19121;52.428;10.816;2023-05-07T05:46:40;19.50;43.70
32753;DHT22;19121;52.428;10.816;2023-05-07T05:49:06;19.50;43.70
32753;DHT22;19121;52.428;10.816;2023-05-07T05:51:32;19.50;43.70
32753;DHT22;19121;52.428;10.816;2023-05-07T05:53:57;19.50;43.70
32753;DHT22;19121;52.428;10.816;2023-05-07T05:56:23;19.50;43.70
32753;DHT22;19121;52.428;10.816;2023-05-07T05:58:48;19.50;43.70
32753;DHT22;19121;52.428;10.816;2023-05-07T06:01:13;19.50;43.70
32753;DHT22;19121;52.428;10.816;2023-05-07T06:03:39;19.50;43.70
32753;DHT22;19121;52.428;10.816;2023-05-07T06:06:05;19.50;43.70
32753;DHT22;19121;52.428;10.816;2023-05-07T06:08:30;19.50;43.70
32753;DHT22;19121;52.428;10.816;2023-05-07T06:10:56;19.50;43.70
32753;DHT22;19121;52.428;10.816;2023-05-07T06:13:22;19.50;43.70
32753;DHT22;19121;52.428;10.816;2023-05-07T06:15:48;19.50;43.70
32753;DHT22;19121;52.428;10.816;2023-05-07T06:18:13;19.50;43.70
32753;DHT22;19121;52.428;10.816;2023-05-07T06:20:39;19.50;43.70
32753;DHT22;19121;52.428;10.816;2023-05-07T06:23:05;19.50;43.70
32753;DHT22;19121;52.428;10.816;2023-05-07T06:25:30;19.50;43.70
32753;DHT22;19121;52.428;10.816;2023-05-07T06:27:55;19.50;43.70
32753;DHT22;19121;52.428;10.816;2023-05-07T06:30:21;19.50;43.70
32753;DHT22;19121;52.428;10.816;2023-05-07T06:32:46;19.40;43.70
32753;DHT22;19121;52.428;10.816;2023-05-07T06:35:12;19.50;43.70
32753;DHT22;19121;52.428;10.816;2023-05-07T06:37:38;19.50;43.70
32753;DHT22;19121;52.428;10.816;2023-05-07T06:40:08;19.50;43.70
32753;DHT22;19121;52.428;10.816;2023-05-07T06:42:33;19.50;43.70
32753;DHT22;19121;52.428;10.816;2023-05-07T06:44:59;19.50;43.70
32753;DHT22;19121;52.428;10.816;2023-05-07T06:47:24;19.40;43.70
32753;DHT22;19121;52.428;10.816;2023-05-07T06:49:50;19.40;43.70
32753;DHT22;19121;52.428;10.816;2023-05-07T06:52:15;19.50;44.30
32753;DHT22;19121;52.428;10.816;2023-05-07T06:54:41;19.40;43.70
32753;DHT22;19121;52.428;10.816;2023-05-07T06:57:06;19.50;43.70
32753;DHT22;19121;52.428;10.816;2023-05-07T06:59:32;19.50;43.70
32753;DHT22;19121;52.428;10.816;2023-05-07T07:01:57;19.40;43.70
32753;DHT22;19121;52.428;10.816;2023-05-07T07:04:23;19.40;43.70
32753;DHT22;19121;52.428;10.816;2023-05-07T07:06:49;19.40;43.70
32753;DHT22;19121;52.428;10.816;2023-05-07T07:09:15;19.40;43.70
32753;DHT22;19121;52.428;10.816;2023-05-07T07:11:40;19.40;43.70
32753;DHT22;19121;52.428;10.816;2023-05-07T07:14:05;19.50;43.70
32753;DHT22;19121;52.428;10.816;2023-05-07T07:16:31;19.40;43.70
32753;DHT22;19121;52.428;10.816;2023-05-07T07:18:56;19.50;43.70
32753;DHT22;19121;52.428;10.816;2023-05-07T07:21:22;19.40;43.70
32753;DHT22;19121;52.428;10.816;2023-05-07T07:23:47;19.40;43.70
32753;DHT22;19121;52.428;10.816;2023-05-07T07:26:13;19.40;43.70
32753;DHT22;19121;52.428;10.816;2023-05-07T07:28:47;19.40;43.60
32753;DHT22;19121;52.428;10.816;2023-05-07T07:31:12;19.40;43.60
32753;DHT22;19121;52.428;10.816;2023-05-07T07:33:38;19.40;43.70
32753;DHT22;19121;52.428;10.816;2023-05-07T07:36:05;19.40;43.70
32753;DHT22;19121;52.428;10.816;2023-05-07T07:38:30;19.50;43.80
32753;DHT22;19121;52.428;10.816;2023-05-07T07:40:56;19.40;43.70
32753;DHT22;19121;52.428;10.816;2023-05-07T07:43:21;19.40;43.70
32753;DHT22;19121;52.428;10.816;2023-05-07T07:45:46;19.50;43.70
32753;DHT22;19121;52.428;10.816;2023-05-07T07:48:12;19.40;43.70
32753;DHT22;19121;52.428;10.816;2023-05-07T07:50:37;19.40;43.70
32753;DHT22;19121;52.428;10.816;2023-05-07T07:53:03;19.50;43.70
32753;DHT22;19121;52.428;10.816;2023-05-07T07:55:28;19.40;43.70
32753;DHT22;19121;52.428;10.816;2023-05-07T07:57:54;19.50;43.80
32753;DHT22;19121;52.428;10.816;2023-05-07T08:00:19;19.50;43.70
32753;DHT22;19121;52.428;10.816;2023-05-07T08:02:45;19.50;43.70
32753;DHT22;19121;52.428;10.816;2023-05-07T08:05:10;19.50;44.40
32753;DHT22;19121;52.428;10.816;2023-05-07T08:07:36;19.50;43.80
32753;DHT22;19121;52.428;10.816;2023-05-07T08:10:01;19.50;43.80
32753;DHT22;19121;52.428;10.816;2023-05-07T08:12:27;19.50;43.80
32753;DHT22;19121;52.428;10.816;2023-05-07T08:14:53;19.50;43.80
32753;DHT22;19121;52.428;10.816;2023-05-07T08:17:18;19.50;43.80
32753;DHT22;19121;52.428;10.816;2023-05-07T08:19:43;19.50;43.80
32753;DHT22;19121;52.428;10.816;2023-05-07T08:22:09;19.50;43.80
32753;DHT22;19121;52.428;10.816;2023-05-07T08:24:36;19.50;43.80
32753;DHT22;19121;52.428;10.816;2023-05-07T08:27:01;19.50;43.80
32753;DHT22;19121;52.428;10.816;2023-05-07T08:29:26;19.50;43.80
32753;DHT22;19121;52.428;10.816;2023-05-07T08:31:52;19.50;43.90
32753;DHT22;19121;52.428;10.816;2023-05-07T08:34:17;19.50;43.90
32753;DHT22;19121;52.428;10.816;2023-05-07T08:36:43;19.50;43.90
32753;DHT22;19121;52.428;10.816;2023-05-07T08:39:09;19.50;43.90
32753;DHT22;19121;52.428;10.816;2023-05-07T08:41:34;19.50;43.90
32753;DHT22;19121;52.428;10.816;2023-05-07T08:43:59;19.50;43.90
32753;DHT22;19121;52.428;10.816;2023-05-07T08:46:29;19.50;43.90
32753;DHT22;19121;52.428;10.816;2023-05-07T08:48:56;19.50;44.00
32753;DHT22;19121;52.428;10.816;2023-05-07T08:51:21;19.50;43.90
32753;DHT22;19121;52.428;10.816;2023-05-07T08:53:48;19.50;44.00
32753;DHT22;19121;52.428;10.816;2023-05-07T08:56:13;19.50;44.00
32753;DHT22;19121;52.428;10.816;2023-05-07T08:58:40;19.50;44.00
32753;DHT22;19121;52.428;10.816;2023-05-07T09:01:09;19.50;44.00
32753;DHT22;19121;52.428;10.816;2023-05-07T09:03:39;19.50;44.00
32753;DHT22;19121;52.428;10.816;2023-05-07T09:06:04;19.50;44.00
32753;DHT22;19121;52.428;10.816;2023-05-07T09:08:31;19.50;44.00
32753;DHT22;19121;52.428;10.816;2023-05-07T09:10:57;19.60;44.10
32753;DHT22;19121;52.428;10.816;2023-05-07T09:13:23;19.50;44.10
32753;DHT22;19121;52.428;10.816;2023-05-07T09:15:48;19.60;44.10
32753;DHT22;19121;52.428;10.816;2023-05-07T09:18:13;19.50;44.10
32753;DHT22;19121;52.428;10.816;2023-05-07T09:20:39;19.50;44.10
32753;DHT22;19121;52.428;10.816;2023-05-07T09:23:05;19.60;44.10
32753;DHT22;19121;52.428;10.816;2023-05-07T09:25:32;19.60;44.10
32753;DHT22;19121;52.428;10.816;2023-05-07T09:27:58;19.50;44.10
32753;DHT22;19121;52.428;10.816;2023-05-07T09:30:27;19.60;44.20
32753;DHT22;19121;52.428;10.816;2023-05-07T09:32:53;19.60;44.30
32753;DHT22;19121;52.428;10.816;2023-05-07T09:35:18;19.60;44.20
32753;DHT22;19121;52.428;10.816;2023-05-07T09:37:46;19.60;44.30
32753;DHT22;19121;52.428;10.816;2023-05-07T09:40:21;19.60;44.30
32753;DHT22;19121;52.428;10.816;2023-05-07T09:42:47;19.60;44.30
32753;DHT22;19121;52.428;10.816;2023-05-07T09:45:13;19.60;44.30
32753;DHT22;19121;52.428;10.816;2023-05-07T09:47:38;19.60;44.30
32753;DHT22;19121;52.428;10.816;2023-05-07T09:50:05;19.60;44.30
32753;DHT22;19121;52.428;10.816;2023-05-07T09:52:30;19.60;44.20
32753;DHT22;19121;52.428;10.816;2023-05-07T09:54:58;19.60;44.30
32753;DHT22;19121;52.428;10.816;2023-05-07T09:57:25;19.60;44.30
32753;DHT22;19121;52.428;10.816;2023-05-07T09:59:50;19.60;44.30
32753;DHT22;19121;52.428;10.816;2023-05-07T10:02:17;19.60;44.20
32753;DHT22;19121;52.428;10.816;2023-05-07T10:04:44;19.60;44.20
32753;DHT22;19121;52.428;10.816;2023-05-07T10:07:10;19.70;44.30
32753;DHT22;19121;52.428;10.816;2023-05-07T10:09:36;19.70;44.30
32753;DHT22;19121;52.428;10.816;2023-05-07T10:12:03;19.60;44.20
32753;DHT22;19121;52.428;10.816;2023-05-07T10:14:29;19.60;44.20
32753;DHT22;19121;52.428;10.816;2023-05-07T10:16:55;19.60;44.20
32753;DHT22;19121;52.428;10.816;2023-05-07T10:19:21;19.60;44.20
32753;DHT22;19121;52.428;10.816;2023-05-07T10:21:56;19.70;44.30
32753;DHT22;19121;52.428;10.816;2023-05-07T10:24:28;19.70;44.30
32753;DHT22;19121;52.428;10.816;2023-05-07T10:26:54;19.70;45.00
32753;DHT22;19121;52.428;10.816;2023-05-07T10:31:57;19.70;44.40
32753;DHT22;19121;52.428;10.816;2023-05-07T10:34:29;19.70;44.40
32753;DHT22;19121;52.428;10.816;2023-05-07T10:36:57;19.70;44.40
32753;DHT22;19121;52.428;10.816;2023-05-07T10:39:23;19.70;44.40
32753;DHT22;19121;52.428;10.816;2023-05-07T10:41:49;19.70;44.40
32753;DHT22;19121;52.428;10.816;2023-05-07T10:44:25;19.70;44.40
32753;DHT22;19121;52.428;10.816;2023-05-07T10:52:15;19.70;44.40
32753;DHT22;19121;52.428;10.816;2023-05-07T10:54:42;19.70;44.40
32753;DHT22;19121;52.428;10.816;2023-05-07T10:59:51;19.70;44.40
32753;DHT22;19121;52.428;10.816;2023-05-07T11:02:18;19.70;44.40
32753;DHT22;19121;52.428;10.816;2023-05-07T11:04:44;19.70;44.40
32753;DHT22;19121;52.428;10.816;2023-05-07T11:07:15;19.70;44.40
32753;DHT22;19121;52.428;10.816;2023-05-07T11:15:01;19.80;44.50
32753;DHT22;19121;52.428;10.816;2023-05-07T11:17:27;19.80;44.50
32753;DHT22;19121;52.428;10.816;2023-05-07T11:19:57;19.70;44.40
32753;DHT22;19121;52.428;10.816;2023-05-07T11:24:58;19.80;44.50
32753;DHT22;19121;52.428;10.816;2023-05-07T11:27:24;19.80;44.60
32753;DHT22;19121;52.428;10.816;2023-05-07T11:29:50;19.80;44.50
32753;DHT22;19121;52.428;10.816;2023-05-07T11:32:17;19.80;44.50
32753;DHT22;19121;52.428;10.816;2023-05-07T11:34:47;19.80;44.50
32753;DHT22;19121;52.428;10.816;2023-05-07T11:37:19;19.80;44.50
32753;DHT22;19121;52.428;10.816;2023-05-07T11:39:44;19.80;44.50
32753;DHT22;19121;52.428;10.816;2023-05-07T11:42:27;19.80;44.60
32753;DHT22;19121;52.428;10.816;2023-05-07T11:44:52;19.80;44.50
32753;DHT22;19121;52.428;10.816;2023-05-07T11:47:18;19.80;44.50
32753;DHT22;19121;52.428;10.816;2023-05-07T11:49:46;19.90;44.60
32753;DHT22;19121;52.428;10.816;2023-05-07T11:52:12;19.90;44.60
32753;DHT22;19121;52.428;10.816;2023-05-07T11:54:38;19.90;44.50
32753;DHT22;19121;52.428;10.816;2023-05-07T11:57:03;19.90;44.50
32753;DHT22;19121;52.428;10.816;2023-05-07T11:59:29;19.90;44.50
32753;DHT22;19121;52.428;10.816;2023-05-07T12:01:58;19.90;45.00
32753;DHT22;19121;52.428;10.816;2023-05-07T12:04:24;19.90;44.40
32753;DHT22;19121;52.428;10.816;2023-05-07T12:06:53;19.90;44.40
32753;DHT22;19121;52.428;10.816;2023-05-07T12:09:19;19.90;44.40
32753;DHT22;19121;52.428;10.816;2023-05-07T12:11:45;20.00;44.50
32753;DHT22;19121;52.428;10.816;2023-05-07T12:14:11;19.90;44.40
32753;DHT22;19121;52.428;10.816;2023-05-07T12:16:36;20.00;44.50
32753;DHT22;19121;52.428;10.816;2023-05-07T12:19:02;20.00;44.50
32753;DHT22;19121;52.428;10.816;2023-05-07T12:21:27;20.00;44.50
32753;DHT22;19121;52.428;10.816;2023-05-07T12:23:53;20.00;44.50
32753;DHT22;19121;52.428;10.816;2023-05-07T12:26:19;20.00;44.40
32753;DHT22;19121;52.428;10.816;2023-05-07T12:28:45;20.00;44.50
32753;DHT22;19121;52.428;10.816;2023-05-07T12:31:11;20.00;44.50
32753;DHT22;19121;52.428;10.816;2023-05-07T12:33:39;20.00;44.60
32753;DHT22;19121;52.428;10.816;2023-05-07T12:36:06;20.00;44.60
32753;DHT22;19121;52.428;10.816;2023-05-07T12:38:34;20.00;44.50
32753;DHT22;19121;52.428;10.816;2023-05-07T12:41:00;20.00;44.50
32753;DHT22;19121;52.428;10.816;2023-05-07T12:43:28;20.00;44.50
32753;DHT22;19121;52.428;10.816;2023-05-07T12:45:54;20.10;44.50
32753;DHT22;19121;52.428;10.816;2023-05-07T12:48:20;20.00;44.50
32753;DHT22;19121;52.428;10.816;2023-05-07T12:50:55;20.10;44.50
32753;DHT22;19121;52.428;10.816;2023-05-07T12:53:22;20.10;44.50
32753;DHT22;19121;52.428;10.816;2023-05-07T12:55:48;20.10;44.50
32753;DHT22;19121;52.428;10.816;2023-05-07T12:58:18;20.10;44.50
32753;DHT22;19121;52.428;10.816;2023-05-07T13:00:44;20.10;44.50
32753;DHT22;19121;52.428;10.816;2023-05-07T13:03:10;20.10;44.50
32753;DHT22;19121;52.428;10.816;2023-05-07T13:05:36;20.10;44.60
32753;DHT22;19121;52.428;10.816;2023-05-07T13:08:01;20.10;44.60
32753;DHT22;19121;52.428;10.816;2023-05-07T13:10:27;20.10;44.60
32753;DHT22;19121;52.428;10.816;2023-05-07T13:12:52;20.10;44.50
32753;DHT22;19121;52.428;10.816;2023-05-07T13:15:18;20.10;44.50
32753;DHT22;19121;52.428;10.816;2023-05-07T13:17:44;20.20;44.60
32753;DHT22;19121;52.428;10.816;2023-05-07T13:20:10;20.10;44.50
32753;DHT22;19121;52.428;10.816;2023-05-07T13:22:35;20.20;44.60
32753;DHT22;19121;52.428;10.816;2023-05-07T13:25:01;20.10;44.60
32753;DHT22;19121;52.428;10.816;2023-05-07T13:27:26;20.10;44.50
32753;DHT22;19121;52.428;10.816;2023-05-07T13:29:52;20.10;44.50
32753;DHT22;19121;52.428;10.816;2023-05-07T13:32:17;20.20;44.60
32753;DHT22;19121;52.428;10.816;2023-05-07T13:34:43;20.10;44.50
32753;DHT22;19121;52.428;10.816;2023-05-07T13:37:08;20.20;44.60
32753;DHT22;19121;52.428;10.816;2023-05-07T13:39:34;20.20;44.50
32753;DHT22;19121;52.428;10.816;2023-05-07T13:41:59;20.20;44.60
32753;DHT22;19121;52.428;10.816;2023-05-07T13:44:25;20.20;44.60
32753;DHT22;19121;52.428;10.816;2023-05-07T13:46:51;20.20;44.50
32753;DHT22;19121;52.428;10.816;2023-05-07T13:49:16;20.20;44.50
32753;DHT22;19121;52.428;10.816;2023-05-07T13:51:41;20.20;44.50
32753;DHT22;19121;52.428;10.816;2023-05-07T13:54:07;20.20;44.50
32753;DHT22;19121;52.428;10.816;2023-05-07T13:56:32;20.20;44.60
32753;DHT22;19121;52.428;10.816;2023-05-07T13:58:58;20.20;44.50
32753;DHT22;19121;52.428;10.816;2023-05-07T14:01:23;20.20;44.50
32753;DHT22;19121;52.428;10.816;2023-05-07T14:03:49;20.20;44.50
32753;DHT22;19121;52.428;10.816;2023-05-07T14:06:14;20.20;44.50
32753;DHT22;19121;52.428;10.816;2023-05-07T14:08:40;20.20;44.50
32753;DHT22;19121;52.428;10.816;2023-05-07T14:11:05;20.20;44.50
32753;DHT22;19121;52.428;10.816;2023-05-07T14:13:31;20.20;44.50
32753;DHT22;19121;52.428;10.816;2023-05-07T14:15:58;20.20;44.50
32753;DHT22;19121;52.428;10.816;2023-05-07T14:18:23;20.20;44.50
32753;DHT22;19121;52.428;10.816;2023-05-07T14:20:49;20.20;44.50
32753;DHT22;19121;52.428;10.816;2023-05-07T14:23:14;20.20;44.60
32753;DHT22;19121;52.428;10.816;2023-05-07T14:25:40;20.30;44.60
32753;DHT22;19121;52.428;10.816;2023-05-07T14:28:06;20.30;44.60
32753;DHT22;19121;52.428;10.816;2023-05-07T14:30:31;20.30;44.60
32753;DHT22;19121;52.428;10.816;2023-05-07T14:32:57;20.20;44.50
32753;DHT22;19121;52.428;10.816;2023-05-07T14:35:22;20.20;44.50
32753;DHT22;19121;52.428;10.816;2023-05-07T14:37:47;20.20;44.50
32753;DHT22;19121;52.428;10.816;2023-05-07T14:40:13;20.20;44.60
32753;DHT22;19121;52.428;10.816;2023-05-07T14:42:39;20.30;44.60
32753;DHT22;19121;52.428;10.816;2023-05-07T14:45:05;20.30;44.60
32753;DHT22;19121;52.428;10.816;2023-05-07T14:47:31;20.30;44.60
32753;DHT22;19121;52.428;10.816;2023-05-07T14:49:56;20.20;44.60
32753;DHT22;19121;52.428;10.816;2023-05-07T14:52:22;20.20;44.50
32753;DHT22;19121;52.428;10.816;2023-05-07T14:54:48;20.30;44.60
32753;DHT22;19121;52.428;10.816;2023-05-07T14:57:13;20.20;44.50
32753;DHT22;19121;52.428;10.816;2023-05-07T14:59:41;20.30;44.60
32753;DHT22;19121;52.428;10.816;2023-05-07T15:02:06;20.30;44.60
32753;DHT22;19121;52.428;10.816;2023-05-07T15:04:33;20.30;44.60
32753;DHT22;19121;52.428;10.816;2023-05-07T15:06:58;20.30;44.60
32753;DHT22;19121;52.428;10.816;2023-05-07T15:09:24;20.30;44.60
32753;DHT22;19121;52.428;10.816;2023-05-07T15:11:49;20.30;44.60
32753;DHT22;19121;52.428;10.816;2023-05-07T15:14:15;20.30;44.60
32753;DHT22;19121;52.428;10.816;2023-05-07T15:16:40;20.30;44.60
32753;DHT22;19121;52.428;10.816;2023-05-07T15:19:06;20.30;44.60
32753;DHT22;19121;52.428;10.816;2023-05-07T15:21:31;20.30;44.60
32753;DHT22;19121;52.428;10.816;2023-05-07T15:23:59;20.30;44.60
32753;DHT22;19121;52.428;10.816;2023-05-07T15:26:25;20.30;44.60